sensor_id;sensor_type;location;lat;lon;timestamp;temperature;humidity
24326;DHT22;12448;45.532;5.290;2023-05-07T00:01:24;18.50;68.90
24326;DHT22;12448;45.532;5.290;2023-05-07T00:03:50;18.50;68.90
24326;DHT22;12448;45.532;5.290;2023-05-07T00:06:15;18.50;68.50
24326;DHT22;12448;45.532;5.290;2023-05-07T00:08:41;18.40;68.30
24326;DHT22;12448;45.532;5.290;2023-05-07T00:11:07;18.30;68.50
24326;DHT22;12448;45.532;5.290;2023-05-07T00:13:32;18.30;68.40
24326;DHT22;12448;45.532;5.290;2023-05-07T00:16:02;18.30;68.60
24326;DHT22;12448;45.532;5.290;2023-05-07T00:18:28;18.30;68.80
24326;DHT22;12448;45.532;5.290;2023-05-07T00:20:54;18.30;68.90
24326;DHT22;12448;45.532;5.290;2023-05-07T00:23:19;18.30;68.90
24326;DHT22;12448;45.532;5.290;2023-05-07T00:25:45;18.20;69.20
24326;DHT22;12448;45.532;5.290;2023-05-07T00:28:11;18.20;69.60
24326;DHT22;12448;45.532;5.290;2023-05-07T00:30:36;18.20;69.90
24326;DHT22;12448;45.532;5.290;2023-05-07T00:33:02;18.60;70.40
24326;DHT22;12448;45.532;5.290;2023-05-07T00:35:28;18.20;70.20
24326;DHT22;12448;45.532;5.290;2023-05-07T00:37:55;17.90;70.20
24326;DHT22;12448;45.532;5.290;2023-05-07T00:40:20;18.10;70.30
24326;DHT22;12448;45.532;5.290;2023-05-07T00:42:46;18.10;70.40
24326;DHT22;12448;45.532;5.290;2023-05-07T00:45:26;18.10;70.40
24326;DHT22;12448;45.532;5.290;2023-05-07T00:47:55;18.20;70.20
24326;DHT22;12448;45.532;5.290;2023-05-07T00:50:21;18.20;70.20
24326;DHT22;12448;45.532;5.290;2023-05-07T00:52:47;18.20;70.10
24326;DHT22;12448;45.532;5.290;2023-05-07T00:55:13;18.20;70.20
24326;DHT22;12448;45.532;5.290;2023-05-07T00:57:41;18.20;70.00
24326;DHT22;12448;45.532;5.290;2023-05-07T01:00:08;18.20;70.00
24326;DHT22;12448;45.532;5.290;2023-05-07T01:02:35;18.20;70.10
24326;DHT22;12448;45.532;5.290;2023-05-07T01:05:02;18.20;70.20
24326;DHT22;12448;45.532;5.290;2023-05-07T01:07:29;18.30;70.20
24326;DHT22;12448;45.532;5.290;2023-05-07T01:09:56;18.30;70.20
24326;DHT22;12448;45.532;5.290;2023-05-07T01:12:23;18.30;70.20
24326;DHT22;12448;45.532;5.290;2023-05-07T01:14:50;18.30;70.20
24326;DHT22;12448;45.532;5.290;2023-05-07T01:17:16;18.30;70.30
24326;DHT22;12448;45.532;5.290;2023-05-07T01:19:42;18.40;70.50
24326;DHT22;12448;45.532;5.290;2023-05-07T01:22:10;18.40;70.60
24326;DHT22;12448;45.532;5.290;2023-05-07T01:24:37;18.30;70.50
24326;DHT22;12448;45.532;5.290;2023-05-07T01:27:03;18.40;70.70
24326;DHT22;12448;45.532;5.290;2023-05-07T01:29:29;18.30;70.60
24326;DHT22;12448;45.532;5.290;2023-05-07T01:31:57;18.30;70.60
24326;DHT22;12448;45.532;5.290;2023-05-07T01:34:25;18.30;70.70
24326;DHT22;12448;45.532;5.290;2023-05-07T01:36:54;18.30;70.60
24326;DHT22;12448;45.532;5.290;2023-05-07T01:39:27;18.30;70.60
24326;DHT22;12448;45.532;5.290;2023-05-07T01:41:57;18.30;70.60
24326;DHT22;12448;45.532;5.290;2023-05-07T01:44:28;18.40;70.70
24326;DHT22;12448;45.532;5.290;2023-05-07T01:46:54;18.30;71.00
24326;DHT22;12448;45.532;5.290;2023-05-07T01:49:23;18.30;70.90
24326;DHT22;12448;45.532;5.290;2023-05-07T01:51:52;18.30;70.70
24326;DHT22;12448;45.532;5.290;2023-05-07T01:54:17;18.30;70.70
24326;DHT22;12448;45.532;5.290;2023-05-07T01:56:43;18.30;70.80
24326;DHT22;12448;45.532;5.290;2023-05-07T01:59:09;18.30;71.10
24326;DHT22;12448;45.532;5.290;2023-05-07T02:01:35;18.30;71.20
24326;DHT22;12448;45.532;5.290;2023-05-07T02:04:01;18.30;71.20
24326;DHT22;12448;45.532;5.290;2023-05-07T02:06:26;18.40;71.50
24326;DHT22;12448;45.532;5.290;2023-05-07T02:08:52;18.40;71.90
24326;DHT22;12448;45.532;5.290;2023-05-07T02:11:18;18.30;71.50
24326;DHT22;12448;45.532;5.290;2023-05-07T02:14:16;18.30;71.60
24326;DHT22;12448;45.532;5.290;2023-05-07T02:16:36;18.30;71.50
24326;DHT22;12448;45.532;5.290;2023-05-07T02:19:01;18.30;71.40
24326;DHT22;12448;45.532;5.290;2023-05-07T02:21:27;18.30;71.40
24326;DHT22;12448;45.532;5.290;2023-05-07T02:23:53;18.30;72.00
24326;DHT22;12448;45.532;5.290;2023-05-07T02:26:19;18.30;72.10
24326;DHT22;12448;45.532;5.290;2023-05-07T02:28:45;18.30;72.10
24326;DHT22;12448;45.532;5.290;2023-05-07T02:31:11;18.20;72.20
24326;DHT22;12448;45.532;5.290;2023-05-07T02:33:37;18.20;72.10
24326;DHT22;12448;45.532;5.290;2023-05-07T02:36:07;18.10;72.10
24326;DHT22;12448;45.532;5.290;2023-05-07T02:38:33;18.10;73.00
24326;DHT22;12448;45.532;5.290;2023-05-07T02:40:59;18.00;73.40
24326;DHT22;12448;45.532;5.290;2023-05-07T02:43:25;18.00;73.80
24326;DHT22;12448;45.532;5.290;2023-05-07T02:46:02;18.00;74.10
24326;DHT22;12448;45.532;5.290;2023-05-07T02:48:28;18.00;74.40
24326;DHT22;12448;45.532;5.290;2023-05-07T02:51:03;18.00;74.50
24326;DHT22;12448;45.532;5.290;2023-05-07T02:53:29;17.90;74.80
24326;DHT22;12448;45.532;5.290;2023-05-07T02:55:58;17.90;74.80
24326;DHT22;12448;45.532;5.290;2023-05-07T02:58:25;17.90;75.00
24326;DHT22;12448;45.532;5.290;2023-05-07T03:00:50;17.90;75.40
24326;DHT22;12448;45.532;5.290;2023-05-07T03:03:16;17.80;75.90
24326;DHT22;12448;45.532;5.290;2023-05-07T03:05:42;17.80;76.20
24326;DHT22;12448;45.532;5.290;2023-05-07T03:08:08;17.80;76.00
24326;DHT22;12448;45.532;5.290;2023-05-07T03:10:35;17.70;75.90
24326;DHT22;12448;45.532;5.290;2023-05-07T03:13:01;17.70;75.80
24326;DHT22;12448;45.532;5.290;2023-05-07T03:15:27;17.70;75.50
24326;DHT22;12448;45.532;5.290;2023-05-07T03:17:52;17.60;75.60
24326;DHT22;12448;45.532;5.290;2023-05-07T03:20:18;17.60;75.60
24326;DHT22;12448;45.532;5.290;2023-05-07T03:22:44;17.60;75.00
24326;DHT22;12448;45.532;5.290;2023-05-07T03:25:10;17.40;75.10
24326;DHT22;12448;45.532;5.290;2023-05-07T03:27:36;17.30;75.40
24326;DHT22;12448;45.532;5.290;2023-05-07T03:30:02;17.20;75.60
24326;DHT22;12448;45.532;5.290;2023-05-07T03:32:27;17.20;76.00
24326;DHT22;12448;45.532;5.290;2023-05-07T03:34:53;17.20;76.20
24326;DHT22;12448;45.532;5.290;2023-05-07T03:37:19;17.20;76.50
24326;DHT22;12448;45.532;5.290;2023-05-07T03:39:44;17.30;76.50
24326;DHT22;12448;45.532;5.290;2023-05-07T03:42:10;17.30;76.30
24326;DHT22;12448;45.532;5.290;2023-05-07T03:44:36;17.30;76.40
24326;DHT22;12448;45.532;5.290;2023-05-07T03:47:02;17.30;76.80
24326;DHT22;12448;45.532;5.290;2023-05-07T03:49:28;17.20;77.40
24326;DHT22;12448;45.532;5.290;2023-05-07T03:51:54;17.10;77.70
24326;DHT22;12448;45.532;5.290;2023-05-07T03:54:19;17.20;77.80
24326;DHT22;12448;45.532;5.290;2023-05-07T03:56:45;17.20;77.90
24326;DHT22;12448;45.532;5.290;2023-05-07T03:59:12;17.30;78.50
24326;DHT22;12448;45.532;5.290;2023-05-07T04:01:38;17.30;78.40
24326;DHT22;12448;45.532;5.290;2023-05-07T04:04:04;17.30;78.50
24326;DHT22;12448;45.532;5.290;2023-05-07T04:06:30;17.40;78.20
24326;DHT22;12448;45.532;5.290;2023-05-07T04:08:56;17.40;77.60
24326;DHT22;12448;45.532;5.290;2023-05-07T04:11:22;17.40;77.70
24326;DHT22;12448;45.532;5.290;2023-05-07T04:13:47;17.40;77.30
24326;DHT22;12448;45.532;5.290;2023-05-07T04:16:13;17.40;77.20
24326;DHT22;12448;45.532;5.290;2023-05-07T04:18:39;17.40;77.20
24326;DHT22;12448;45.532;5.290;2023-05-07T04:21:05;17.40;77.20
24326;DHT22;12448;45.532;5.290;2023-05-07T04:23:31;17.40;77.20
24326;DHT22;12448;45.532;5.290;2023-05-07T04:25:57;17.50;77.20
24326;DHT22;12448;45.532;5.290;2023-05-07T04:28:23;17.50;77.10
24326;DHT22;12448;45.532;5.290;2023-05-07T04:30:49;17.50;76.90
24326;DHT22;12448;45.532;5.290;2023-05-07T04:33:15;17.50;77.10
24326;DHT22;12448;45.532;5.290;2023-05-07T04:35:46;17.50;77.10
24326;DHT22;12448;45.532;5.290;2023-05-07T04:38:12;17.50;77.10
24326;DHT22;12448;45.532;5.290;2023-05-07T04:40:38;17.50;77.50
24326;DHT22;12448;45.532;5.290;2023-05-07T04:43:04;17.50;77.90
24326;DHT22;12448;45.532;5.290;2023-05-07T04:45:30;17.50;77.90
24326;DHT22;12448;45.532;5.290;2023-05-07T04:47:56;17.50;78.50
24326;DHT22;12448;45.532;5.290;2023-05-07T04:50:21;17.50;78.20
24326;DHT22;12448;45.532;5.290;2023-05-07T04:52:50;17.50;77.90
24326;DHT22;12448;45.532;5.290;2023-05-07T04:55:16;17.60;77.40
24326;DHT22;12448;45.532;5.290;2023-05-07T04:57:41;17.60;77.10
24326;DHT22;12448;45.532;5.290;2023-05-07T05:00:09;17.70;77.20
24326;DHT22;12448;45.532;5.290;2023-05-07T05:02:35;17.60;77.10
24326;DHT22;12448;45.532;5.290;2023-05-07T05:05:01;17.70;76.90
24326;DHT22;12448;45.532;5.290;2023-05-07T05:07:28;17.70;76.60
24326;DHT22;12448;45.532;5.290;2023-05-07T05:09:56;17.70;76.60
24326;DHT22;12448;45.532;5.290;2023-05-07T05:12:23;17.70;76.70
24326;DHT22;12448;45.532;5.290;2023-05-07T05:14:48;17.70;76.80
24326;DHT22;12448;45.532;5.290;2023-05-07T05:17:14;17.70;76.60
24326;DHT22;12448;45.532;5.290;2023-05-07T05:19:39;17.70;76.70
24326;DHT22;12448;45.532;5.290;2023-05-07T05:22:05;17.70;76.70
24326;DHT22;12448;45.532;5.290;2023-05-07T05:24:31;17.70;76.90
24326;DHT22;12448;45.532;5.290;2023-05-07T05:26:57;17.80;76.90
24326;DHT22;12448;45.532;5.290;2023-05-07T05:29:25;17.70;76.90
24326;DHT22;12448;45.532;5.290;2023-05-07T05:31:50;17.70;77.30
24326;DHT22;12448;45.532;5.290;2023-05-07T05:34:16;17.70;77.90
24326;DHT22;12448;45.532;5.290;2023-05-07T05:36:45;17.70;78.00
24326;DHT22;12448;45.532;5.290;2023-05-07T05:39:10;17.70;77.70
24326;DHT22;12448;45.532;5.290;2023-05-07T05:41:36;17.70;77.70
24326;DHT22;12448;45.532;5.290;2023-05-07T05:44:02;17.90;78.20
24326;DHT22;12448;45.532;5.290;2023-05-07T05:46:46;17.80;78.10
24326;DHT22;12448;45.532;5.290;2023-05-07T05:49:11;17.80;78.00
24326;DHT22;12448;45.532;5.290;2023-05-07T05:51:37;17.80;78.00
24326;DHT22;12448;45.532;5.290;2023-05-07T05:54:03;17.80;77.30
24326;DHT22;12448;45.532;5.290;2023-05-07T05:56:28;17.80;76.50
24326;DHT22;12448;45.532;5.290;2023-05-07T05:59:03;17.80;76.50
24326;DHT22;12448;45.532;5.290;2023-05-07T06:01:29;17.80;76.40
24326;DHT22;12448;45.532;5.290;2023-05-07T06:03:55;17.90;76.90
24326;DHT22;12448;45.532;5.290;2023-05-07T06:06:24;17.90;76.80
24326;DHT22;12448;45.532;5.290;2023-05-07T06:09:11;18.00;76.90
24326;DHT22;12448;45.532;5.290;2023-05-07T06:12:00;18.10;76.10
24326;DHT22;12448;45.532;5.290;2023-05-07T06:14:26;18.20;76.20
24326;DHT22;12448;45.532;5.290;2023-05-07T06:16:52;18.20;76.20
24326;DHT22;12448;45.532;5.290;2023-05-07T06:22:24;18.40;75.30
24326;DHT22;12448;45.532;5.290;2023-05-07T06:27:56;18.60;75.70
24326;DHT22;12448;45.532;5.290;2023-05-07T06:30:25;18.60;76.40
24326;DHT22;12448;45.532;5.290;2023-05-07T06:32:52;18.60;76.80
24326;DHT22;12448;45.532;5.290;2023-05-07T06:35:18;18.70;77.00
24326;DHT22;12448;45.532;5.290;2023-05-07T06:37:49;18.80;77.10
24326;DHT22;12448;45.532;5.290;2023-05-07T06:40:14;18.90;77.40
24326;DHT22;12448;45.532;5.290;2023-05-07T06:42:41;18.90;77.40
24326;DHT22;12448;45.532;5.290;2023-05-07T06:45:08;19.00;77.00
24326;DHT22;12448;45.532;5.290;2023-05-07T06:47:42;19.00;75.90
24326;DHT22;12448;45.532;5.290;2023-05-07T06:50:24;19.00;75.70
24326;DHT22;12448;45.532;5.290;2023-05-07T06:55:57;19.10;75.80
24326;DHT22;12448;45.532;5.290;2023-05-07T06:58:29;19.30;75.30
24326;DHT22;12448;45.532;5.290;2023-05-07T07:01:15;19.30;75.60
24326;DHT22;12448;45.532;5.290;2023-05-07T07:03:44;19.30;76.10
24326;DHT22;12448;45.532;5.290;2023-05-07T07:06:25;19.30;76.30
24326;DHT22;12448;45.532;5.290;2023-05-07T07:08:51;19.30;76.40
24326;DHT22;12448;45.532;5.290;2023-05-07T07:11:17;19.40;76.50
24326;DHT22;12448;45.532;5.290;2023-05-07T07:13:42;19.40;76.50
24326;DHT22;12448;45.532;5.290;2023-05-07T07:16:08;19.40;76.70
24326;DHT22;12448;45.532;5.290;2023-05-07T07:18:34;19.40;76.50
24326;DHT22;12448;45.532;5.290;2023-05-07T07:21:00;19.40;76.30
24326;DHT22;12448;45.532;5.290;2023-05-07T07:23:33;19.50;76.40
24326;DHT22;12448;45.532;5.290;2023-05-07T07:26:24;19.50;76.70
24326;DHT22;12448;45.532;5.290;2023-05-07T07:32:14;19.50;77.00
24326;DHT22;12448;45.532;5.290;2023-05-07T07:34:39;19.50;77.40
24326;DHT22;12448;45.532;5.290;2023-05-07T07:37:08;19.60;77.60
24326;DHT22;12448;45.532;5.290;2023-05-07T07:39:34;19.60;77.70
24326;DHT22;12448;45.532;5.290;2023-05-07T07:42:01;19.60;77.80
24326;DHT22;12448;45.532;5.290;2023-05-07T07:44:27;19.60;77.30
24326;DHT22;12448;45.532;5.290;2023-05-07T07:46:59;19.60;77.00
24326;DHT22;12448;45.532;5.290;2023-05-07T07:49:26;19.50;76.70
24326;DHT22;12448;45.532;5.290;2023-05-07T07:51:52;19.40;75.50
24326;DHT22;12448;45.532;5.290;2023-05-07T07:54:46;19.40;75.50
24326;DHT22;12448;45.532;5.290;2023-05-07T07:57:21;19.30;75.30
24326;DHT22;12448;45.532;5.290;2023-05-07T07:59:46;19.30;75.60
24326;DHT22;12448;45.532;5.290;2023-05-07T08:02:12;19.30;76.30
24326;DHT22;12448;45.532;5.290;2023-05-07T08:04:37;19.20;77.10
24326;DHT22;12448;45.532;5.290;2023-05-07T08:07:03;19.20;77.70
24326;DHT22;12448;45.532;5.290;2023-05-07T08:09:29;19.10;78.30
24326;DHT22;12448;45.532;5.290;2023-05-07T08:11:55;19.00;79.10
24326;DHT22;12448;45.532;5.290;2023-05-07T08:14:23;19.00;79.70
24326;DHT22;12448;45.532;5.290;2023-05-07T08:16:53;18.90;79.90
24326;DHT22;12448;45.532;5.290;2023-05-07T08:22:21;18.80;80.10
24326;DHT22;12448;45.532;5.290;2023-05-07T08:25:54;18.80;79.60
24326;DHT22;12448;45.532;5.290;2023-05-07T08:27:57;18.80;79.70
24326;DHT22;12448;45.532;5.290;2023-05-07T08:30:23;18.80;80.10
24326;DHT22;12448;45.532;5.290;2023-05-07T08:32:48;18.80;80.40
24326;DHT22;12448;45.532;5.290;2023-05-07T08:35:17;18.90;81.00
24326;DHT22;12448;45.532;5.290;2023-05-07T08:37:43;18.90;81.20
24326;DHT22;12448;45.532;5.290;2023-05-07T08:40:11;18.90;81.10
24326;DHT22;12448;45.532;5.290;2023-05-07T08:42:38;19.00;81.40
24326;DHT22;12448;45.532;5.290;2023-05-07T08:45:09;18.90;81.20
24326;DHT22;12448;45.532;5.290;2023-05-07T08:47:47;19.00;81.00
24326;DHT22;12448;45.532;5.290;2023-05-07T08:50:21;18.90;80.90
24326;DHT22;12448;45.532;5.290;2023-05-07T08:52:48;18.80;81.10
24326;DHT22;12448;45.532;5.290;2023-05-07T08:55:14;18.70;80.80
24326;DHT22;12448;45.532;5.290;2023-05-07T08:57:40;18.70;81.20
24326;DHT22;12448;45.532;5.290;2023-05-07T09:00:06;19.00;80.60
24326;DHT22;12448;45.532;5.290;2023-05-07T09:02:33;19.00;80.80
24326;DHT22;12448;45.532;5.290;2023-05-07T09:05:00;18.90;81.80
24326;DHT22;12448;45.532;5.290;2023-05-07T09:07:25;18.80;83.50
24326;DHT22;12448;45.532;5.290;2023-05-07T09:09:52;18.50;84.20
24326;DHT22;12448;45.532;5.290;2023-05-07T09:12:19;18.30;86.20
24326;DHT22;12448;45.532;5.290;2023-05-07T09:14:45;18.20;85.60
24326;DHT22;12448;45.532;5.290;2023-05-07T09:17:21;18.10;85.60
24326;DHT22;12448;45.532;5.290;2023-05-07T09:19:50;18.10;87.30
24326;DHT22;12448;45.532;5.290;2023-05-07T09:22:16;17.90;88.20
24326;DHT22;12448;45.532;5.290;2023-05-07T09:24:50;17.70;89.20
24326;DHT22;12448;45.532;5.290;2023-05-07T09:27:17;17.60;89.60
24326;DHT22;12448;45.532;5.290;2023-05-07T09:29:44;17.40;90.10
24326;DHT22;12448;45.532;5.290;2023-05-07T09:32:10;17.20;90.60
24326;DHT22;12448;45.532;5.290;2023-05-07T09:34:36;17.10;90.90
24326;DHT22;12448;45.532;5.290;2023-05-07T09:37:03;17.10;91.00
24326;DHT22;12448;45.532;5.290;2023-05-07T09:42:09;17.00;91.30
24326;DHT22;12448;45.532;5.290;2023-05-07T09:44:37;17.00;91.40
24326;DHT22;12448;45.532;5.290;2023-05-07T09:47:05;16.90;91.70
24326;DHT22;12448;45.532;5.290;2023-05-07T09:49:34;16.80;92.20
24326;DHT22;12448;45.532;5.290;2023-05-07T09:52:01;16.70;92.30
24326;DHT22;12448;45.532;5.290;2023-05-07T09:54:27;16.60;92.60
24326;DHT22;12448;45.532;5.290;2023-05-07T09:56:57;16.60;92.70
24326;DHT22;12448;45.532;5.290;2023-05-07T09:59:24;16.60;92.80
24326;DHT22;12448;45.532;5.290;2023-05-07T10:01:52;16.60;92.30
24326;DHT22;12448;45.532;5.290;2023-05-07T10:04:20;16.60;92.20
24326;DHT22;12448;45.532;5.290;2023-05-07T10:06:46;16.70;92.40
24326;DHT22;12448;45.532;5.290;2023-05-07T10:09:12;16.60;92.70
24326;DHT22;12448;45.532;5.290;2023-05-07T10:11:39;16.60;93.10
24326;DHT22;12448;45.532;5.290;2023-05-07T10:14:14;16.50;93.40
24326;DHT22;12448;45.532;5.290;2023-05-07T10:16:41;16.60;93.60
24326;DHT22;12448;45.532;5.290;2023-05-07T10:19:07;16.60;93.50
24326;DHT22;12448;45.532;5.290;2023-05-07T10:21:36;16.70;93.60
24326;DHT22;12448;45.532;5.290;2023-05-07T10:24:10;16.70;93.60
24326;DHT22;12448;45.532;5.290;2023-05-07T10:26:42;16.80;93.60
24326;DHT22;12448;45.532;5.290;2023-05-07T10:29:30;16.90;93.90
24326;DHT22;12448;45.532;5.290;2023-05-07T10:34:54;16.70;94.30
24326;DHT22;12448;45.532;5.290;2023-05-07T10:37:20;16.60;94.60
24326;DHT22;12448;45.532;5.290;2023-05-07T10:39:46;16.60;94.90
24326;DHT22;12448;45.532;5.290;2023-05-07T10:42:13;16.50;95.60
24326;DHT22;12448;45.532;5.290;2023-05-07T10:44:39;16.40;95.60
24326;DHT22;12448;45.532;5.290;2023-05-07T10:47:10;16.40;96.10
24326;DHT22;12448;45.532;5.290;2023-05-07T10:55:39;16.10;97.10
24326;DHT22;12448;45.532;5.290;2023-05-07T10:58:46;16.00;97.30
24326;DHT22;12448;45.532;5.290;2023-05-07T11:02:30;16.10;97.30
24326;DHT22;12448;45.532;5.290;2023-05-07T11:08:10;16.20;97.80
24326;DHT22;12448;45.532;5.290;2023-05-07T11:10:56;16.10;97.70
24326;DHT22;12448;45.532;5.290;2023-05-07T11:13:42;16.10;97.90
24326;DHT22;12448;45.532;5.290;2023-05-07T11:16:28;16.10;98.10
24326;DHT22;12448;45.532;5.290;2023-05-07T11:18:56;16.10;98.50
24326;DHT22;12448;45.532;5.290;2023-05-07T11:21:38;16.10;98.40
24326;DHT22;12448;45.532;5.290;2023-05-07T11:24:05;16.10;98.50
24326;DHT22;12448;45.532;5.290;2023-05-07T11:29:20;16.20;98.70
24326;DHT22;12448;45.532;5.290;2023-05-07T11:31:51;16.20;98.70
24326;DHT22;12448;45.532;5.290;2023-05-07T11:34:24;16.30;98.70
24326;DHT22;12448;45.532;5.290;2023-05-07T11:36:50;16.30;98.90
24326;DHT22;12448;45.532;5.290;2023-05-07T11:39:27;16.30;98.80
24326;DHT22;12448;45.532;5.290;2023-05-07T11:41:53;16.30;98.80
24326;DHT22;12448;45.532;5.290;2023-05-07T11:44:18;16.40;99.00
24326;DHT22;12448;45.532;5.290;2023-05-07T11:46:44;16.40;98.90
24326;DHT22;12448;45.532;5.290;2023-05-07T11:49:13;16.40;99.00
24326;DHT22;12448;45.532;5.290;2023-05-07T11:51:51;16.30;99.00
24326;DHT22;12448;45.532;5.290;2023-05-07T11:54:17;16.30;99.10
24326;DHT22;12448;45.532;5.290;2023-05-07T11:56:44;16.30;99.10
24326;DHT22;12448;45.532;5.290;2023-05-07T11:59:10;16.30;99.10
24326;DHT22;12448;45.532;5.290;2023-05-07T12:01:36;16.40;99.00
24326;DHT22;12448;45.532;5.290;2023-05-07T12:04:03;16.50;99.20
24326;DHT22;12448;45.532;5.290;2023-05-07T12:06:29;16.60;99.20
24326;DHT22;12448;45.532;5.290;2023-05-07T12:08:55;16.70;99.10
24326;DHT22;12448;45.532;5.290;2023-05-07T12:11:25;16.70;98.80
24326;DHT22;12448;45.532;5.290;2023-05-07T12:13:53;16.70;98.50
24326;DHT22;12448;45.532;5.290;2023-05-07T12:16:20;16.70;98.60
24326;DHT22;12448;45.532;5.290;2023-05-07T12:18:50;16.60;98.70
24326;DHT22;12448;45.532;5.290;2023-05-07T12:21:18;16.60;98.60
24326;DHT22;12448;45.532;5.290;2023-05-07T12:23:47;16.70;98.50
24326;DHT22;12448;45.532;5.290;2023-05-07T12:26:15;16.70;98.30
24326;DHT22;12448;45.532;5.290;2023-05-07T12:28:41;16.70;97.90
24326;DHT22;12448;45.532;5.290;2023-05-07T12:31:08;16.70;98.00
24326;DHT22;12448;45.532;5.290;2023-05-07T12:33:34;16.70;97.60
24326;DHT22;12448;45.532;5.290;2023-05-07T12:36:06;16.70;97.50
24326;DHT22;12448;45.532;5.290;2023-05-07T12:38:38;16.70;97.60
24326;DHT22;12448;45.532;5.290;2023-05-07T12:41:08;16.70;97.40
24326;DHT22;12448;45.532;5.290;2023-05-07T12:43:34;16.70;97.50
24326;DHT22;12448;45.532;5.290;2023-05-07T12:46:03;16.70;97.70
24326;DHT22;12448;45.532;5.290;2023-05-07T12:48:29;16.80;97.90
24326;DHT22;12448;45.532;5.290;2023-05-07T12:50:57;16.70;97.80
24326;DHT22;12448;45.532;5.290;2023-05-07T12:53:24;16.80;97.70
24326;DHT22;12448;45.532;5.290;2023-05-07T12:55:52;16.70;97.60
24326;DHT22;12448;45.532;5.290;2023-05-07T13:00:48;16.80;97.50
24326;DHT22;12448;45.532;5.290;2023-05-07T13:03:38;16.80;97.40
24326;DHT22;12448;45.532;5.290;2023-05-07T13:06:08;16.90;97.30
24326;DHT22;12448;45.532;5.290;2023-05-07T13:08:41;16.80;97.40
24326;DHT22;12448;45.532;5.290;2023-05-07T13:11:10;16.90;97.60
24326;DHT22;12448;45.532;5.290;2023-05-07T13:13:38;16.90;97.40
24326;DHT22;12448;45.532;5.290;2023-05-07T13:16:05;16.90;97.10
24326;DHT22;12448;45.532;5.290;2023-05-07T13:18:32;16.90;97.00
24326;DHT22;12448;45.532;5.290;2023-05-07T13:20:58;16.90;97.10
24326;DHT22;12448;45.532;5.290;2023-05-07T13:23:24;17.00;97.20
24326;DHT22;12448;45.532;5.290;2023-05-07T13:25:50;17.00;97.50
24326;DHT22;12448;45.532;5.290;2023-05-07T13:28:16;17.00;97.10
24326;DHT22;12448;45.532;5.290;2023-05-07T13:30:42;17.10;97.20
24326;DHT22;12448;45.532;5.290;2023-05-07T13:33:08;17.10;97.20
24326;DHT22;12448;45.532;5.290;2023-05-07T13:35:34;17.20;97.10
24326;DHT22;12448;45.532;5.290;2023-05-07T13:38:00;17.20;97.00
24326;DHT22;12448;45.532;5.290;2023-05-07T13:40:26;17.10;96.90
24326;DHT22;12448;45.532;5.290;2023-05-07T13:42:52;17.10;96.90
24326;DHT22;12448;45.532;5.290;2023-05-07T13:45:18;17.20;96.90
24326;DHT22;12448;45.532;5.290;2023-05-07T13:47:45;17.20;97.00
24326;DHT22;12448;45.532;5.290;2023-05-07T13:50:11;17.20;97.10
24326;DHT22;12448;45.532;5.290;2023-05-07T13:52:40;17.30;97.10
24326;DHT22;12448;45.532;5.290;2023-05-07T13:55:06;17.30;97.00
24326;DHT22;12448;45.532;5.290;2023-05-07T13:57:32;17.20;97.10
24326;DHT22;12448;45.532;5.290;2023-05-07T13:59:58;17.30;96.80
24326;DHT22;12448;45.532;5.290;2023-05-07T14:02:23;17.30;97.00
24326;DHT22;12448;45.532;5.290;2023-05-07T14:04:49;17.30;97.00
24326;DHT22;12448;45.532;5.290;2023-05-07T14:07:15;17.30;96.90
24326;DHT22;12448;45.532;5.290;2023-05-07T14:09:40;17.30;97.00
24326;DHT22;12448;45.532;5.290;2023-05-07T14:12:06;17.40;97.00
24326;DHT22;12448;45.532;5.290;2023-05-07T14:14:32;17.40;97.00
24326;DHT22;12448;45.532;5.290;2023-05-07T14:16:58;17.40;97.10
24326;DHT22;12448;45.532;5.290;2023-05-07T14:19:23;17.40;97.10
24326;DHT22;12448;45.532;5.290;2023-05-07T14:21:49;17.20;96.70
24326;DHT22;12448;45.532;5.290;2023-05-07T14:24:15;17.20;96.80
24326;DHT22;12448;45.532;5.290;2023-05-07T14:26:41;17.10;96.90
24326;DHT22;12448;45.532;5.290;2023-05-07T14:29:06;17.10;96.60
24326;DHT22;12448;45.532;5.290;2023-05-07T14:31:32;17.10;96.70
24326;DHT22;12448;45.532;5.290;2023-05-07T14:33:58;17.00;96.40
24326;DHT22;12448;45.532;5.290;2023-05-07T14:36:24;17.00;96.40
24326;DHT22;12448;45.532;5.290;2023-05-07T14:38:55;17.00;96.50
24326;DHT22;12448;45.532;5.290;2023-05-07T14:41:22;17.10;96.60
24326;DHT22;12448;45.532;5.290;2023-05-07T14:43:48;17.10;96.60
24326;DHT22;12448;45.532;5.290;2023-05-07T14:46:18;17.10;96.70
24326;DHT22;12448;45.532;5.290;2023-05-07T14:48:44;17.10;96.70
24326;DHT22;12448;45.532;5.290;2023-05-07T14:51:11;17.30;96.70
24326;DHT22;12448;45.532;5.290;2023-05-07T14:53:37;17.30;96.70
24326;DHT22;12448;45.532;5.290;2023-05-07T14:56:03;17.20;96.50
24326;DHT22;12448;45.532;5.290;2023-05-07T14:58:28;17.20;96.30
24326;DHT22;12448;45.532;5.290;2023-05-07T15:00:54;17.10;96.50
24326;DHT22;12448;45.532;5.290;2023-05-07T15:03:20;16.80;96.50
24326;DHT22;12448;45.532;5.290;2023-05-07T15:05:47;17.00;96.40
24326;DHT22;12448;45.532;5.290;2023-05-07T15:08:12;17.00;96.40
24326;DHT22;12448;45.532;5.290;2023-05-07T15:10:38;17.10;96.50
24326;DHT22;12448;45.532;5.290;2023-05-07T15:13:06;17.20;96.50
24326;DHT22;12448;45.532;5.290;2023-05-07T15:15:32;17.20;96.70
24326;DHT22;12448;45.532;5.290;2023-05-07T15:17:58;17.20;96.30
24326;DHT22;12448;45.532;5.290;2023-05-07T15:20:27;17.20;96.40
24326;DHT22;12448;45.532;5.290;2023-05-07T15:22:52;17.20;96.30
24326;DHT22;12448;45.532;5.290;2023-05-07T15:25:18;17.20;96.40
24326;DHT22;12448;45.532;5.290;2023-05-07T15:27:44;17.10;96.40
24326;DHT22;12448;45.532;5.290;2023-05-07T15:30:10;17.20;96.40
24326;DHT22;12448;45.532;5.290;2023-05-07T15:32:38;17.20;96.60
24326;DHT22;12448;45.532;5.290;2023-05-07T15:35:05;17.10;96.60
24326;DHT22;12448;45.532;5.290;2023-05-07T15:37:31;17.10;96.60
24326;DHT22;12448;45.532;5.290;2023-05-07T15:39:56;17.20;96.50
24326;DHT22;12448;45.532;5.290;2023-05-07T15:42:22;17.20;96.30
24326;DHT22;12448;45.532;5.290;2023-05-07T15:44:48;17.10;95.90
24326;DHT22;12448;45.532;5.290;2023-05-07T15:47:14;17.10;96.00
24326;DHT22;12448;45.532;5.290;2023-05-07T15:49:41;17.10;95.90
24326;DHT22;12448;45.532;5.290;2023-05-07T15:52:06;17.10;96.00
24326;DHT22;12448;45.532;5.290;2023-05-07T15:54:32;17.10;96.10
24326;DHT22;12448;45.532;5.290;2023-05-07T15:56:57;17.10;96.30
24326;DHT22;12448;45.532;5.290;2023-05-07T15:59:23;17.10;96.30
24326;DHT22;12448;45.532;5.290;2023-05-07T16:01:52;17.10;96.40
24326;DHT22;12448;45.532;5.290;2023-05-07T16:04:17;17.10;96.70
24326;DHT22;12448;45.532;5.290;2023-05-07T16:06:43;17.10;96.80
24326;DHT22;12448;45.532;5.290;2023-05-07T16:09:12;17.00;96.80
24326;DHT22;12448;45.532;5.290;2023-05-07T16:11:38;17.00;96.60